Time;durP1;ratioP1;P1;durP2;ratioP2;P2;SDS_P1;SDS_P2;PMS_P1;PMS_P2;Temp;Humidity;BMP_temperature;BMP_pressure;BME280_temperature;BME280_humidity;BME280_pressure;Samples;Min_cycle;Max_cycle;Signal;HPM_P1;HPM_P2
2021/03/27 00:02:07;;;;;;;;;;;;;;;28.33;20.38;101657.75;5118940;28;756;-33
2021/03/27 00:04:35;;;;;;;;;;;;;;;28.65;19.59;101670.56;5107049;28;1906;-44
2021/03/27 00:07:08;;;;;;;;;;;;;;;28.97;19.54;101660.72;5118000;28;982;-44
2021/03/27 00:09:41;;;;;;;;;;;;;;;29.40;19.26;101667.69;5100068;28;818;-37
2021/03/27 00:12:26;;;;;;;;;;;;;;;29.04;19.58;101669.00;5118980;28;760;-35
2021/03/27 00:14:53;;;;;;;;;;;;;;;29.65;18.84;101663.00;5118114;28;1618;-34
2021/03/27 00:17:20;;;;;;;;;;;;;;;29.36;18.86;101663.66;5100329;28;790;-42
2021/03/27 00:19:47;;;;;;;;;;;;;;;28.72;19.76;101668.88;5100501;28;779;-34
2021/03/27 00:22:18;;;;;;;;;;;;;;;29.07;19.33;101660.53;5117635;28;949;-43
2021/03/27 00:24:54;;;;;;;;;;;;;;;29.43;19.28;101654.63;5100185;28;1902;-33
2021/03/27 00:27:21;;;;;;;;;;;;;;;29.68;18.98;101653.66;5100495;28;807;-34
2021/03/27 00:29:47;;;;;;;;;;;;;;;29.49;19.09;101658.50;5100244;28;816;-34
2021/03/27 00:32:14;;;;;;;;;;;;;;;29.08;19.24;101654.09;5100418;28;748;-44
2021/03/27 00:34:40;;;;;;;;;;;;;;;28.16;20.66;101650.63;5099941;28;808;-45
2021/03/27 00:37:07;;;;;;;;;;;;;;;28.40;20.45;101647.09;5098675;28;977;-38
2021/03/27 00:39:40;;;;;;;;;;;;;;;28.26;20.36;101650.44;5118331;28;827;-34
2021/03/27 00:42:15;;;;;;;;;;;;;;;29.14;19.57;101652.56;5099160;28;1105;-38
2021/03/27 00:44:42;;;;;;;;;;;;;;;29.23;19.71;101653.38;5100241;28;1910;-43
2021/03/27 00:47:08;;;;;;;;;;;;;;;29.73;19.22;101653.16;5099535;28;808;-43
2021/03/27 00:49:34;;;;;;;;;;;;;;;29.46;19.19;101658.88;5118414;28;763;-43
2021/03/27 00:52:01;;;;;;;;;;;;;;;28.88;20.08;101654.44;5099321;28;1020;-43
2021/03/27 00:54:30;;;;;;;;;;;;;;;28.92;19.78;101647.69;5117831;28;728;-42
2021/03/27 00:57:05;;;;;;;;;;;;;;;29.62;18.99;101652.53;5100233;28;736;-34
2021/03/27 00:59:31;;;;;;;;;;;;;;;29.65;19.01;101654.03;5118076;28;759;-47
2021/03/27 01:01:57;;;;;;;;;;;;;;;28.89;19.99;101656.16;5099314;28;791;-41
2021/03/27 01:04:23;;;;;;;;;;;;;;;29.66;19.23;101642.19;5099850;28;1898;-36
2021/03/27 01:06:53;;;;;;;;;;;;;;;29.38;19.33;101640.75;5098231;28;1317;-46
2021/03/27 01:09:19;;;;;;;;;;;;;;;28.92;20.01;101639.56;5098519;28;1057;-44
2021/03/27 01:11:46;;;;;;;;;;;;;;;28.88;20.14;101640.09;5117898;28;866;-34
2021/03/27 01:14:15;;;;;;;;;;;;;;;29.61;19.13;101639.16;5099727;28;775;-46
2021/03/27 01:16:44;;;;;;;;;;;;;;;29.64;19.21;101639.66;5099040;28;775;-34
2021/03/27 01:19:13;;;;;;;;;;;;;;;29.39;19.20;101636.19;5099572;28;815;-45
2021/03/27 01:21:39;;;;;;;;;;;;;;;28.85;19.99;101635.84;5110506;28;962;-34
2021/03/27 01:24:06;;;;;;;;;;;;;;;27.98;21.04;101629.97;5078463;28;2020;-36
2021/03/27 01:27:04;;;;;;;;;;;;;;;28.46;20.51;101637.47;5079149;28;837;-37
2021/03/27 01:29:32;;;;;;;;;;;;;;;29.28;19.94;101640.97;5062636;28;1113;-43
2021/03/27 01:32:09;;;;;;;;;;;;;;;28.62;20.39;101635.72;5097074;28;843;-43
2021/03/27 01:34:35;;;;;;;;;;;;;;;29.72;19.25;101646.03;5097141;28;744;-40
2021/03/27 01:37:04;;;;;;;;;;;;;;;29.43;19.39;101645.63;5079129;28;895;-33
2021/03/27 01:39:48;;;;;;;;;;;;;;;28.83;20.24;101638.72;5096922;28;775;-33
2021/03/27 01:42:31;;;;;;;;;;;;;;;29.37;19.58;101640.94;5096814;28;1134;-33
2021/03/27 01:45:03;;;;;;;;;;;;;;;29.57;19.40;101649.47;5096349;28;1975;-33
2021/03/27 01:47:30;;;;;;;;;;;;;;;29.54;18.55;101647.13;5096859;28;779;-33
2021/03/27 01:49:59;;;;;;;;;;;;;;;28.99;19.81;101644.31;5079167;28;733;-40
2021/03/27 01:52:33;;;;;;;;;;;;;;;28.46;20.91;101640.97;5096718;28;974;-34
2021/03/27 01:55:13;;;;;;;;;;;;;;;28.07;21.33;101637.09;5096829;28;743;-45
2021/03/27 01:57:42;;;;;;;;;;;;;;;28.92;20.18;101639.56;5096470;28;760;-42
2021/03/27 02:00:13;;;;;;;;;;;;;;;29.43;19.55;101642.94;5078184;28;807;-35
2021/03/27 02:02:53;;;;;;;;;;;;;;;29.34;19.87;101645.69;5078987;28;751;-35
2021/03/27 02:05:20;;;;;;;;;;;;;;;29.76;19.29;101648.19;5078622;28;1901;-35
2021/03/27 02:07:48;;;;;;;;;;;;;;;29.55;19.59;101649.66;5096361;28;1028;-35
2021/03/27 02:10:36;;;;;;;;;;;;;;;29.05;20.42;101651.72;5096664;28;836;-45
2021/03/27 02:13:06;;;;;;;;;;;;;;;28.94;20.35;101650.22;5088157;28;1138;-35
2021/03/27 02:15:50;;;;;;;;;;;;;;;29.51;19.89;101661.84;5077438;28;855;-35
2021/03/27 02:18:21;;;;;;;;;;;;;;;29.73;19.19;101655.88;5096553;28;799;-34
2021/03/27 02:21:05;;;;;;;;;;;;;;;29.40;19.80;101654.97;5096334;28;804;-34
2021/03/27 02:23:33;;;;;;;;;;;;;;;28.55;20.88;101655.38;5096372;28;1909;-45
2021/03/27 02:26:17;;;;;;;;;;;;;;;28.56;20.80;101659.75;5096479;28;772;-34
2021/03/27 02:28:42;;;;;;;;;;;;;;;29.25;20.15;101652.16;5095884;28;829;-44
2021/03/27 02:31:15;;;;;;;;;;;;;;;29.48;19.84;101664.94;5096105;28;792;-34
2021/03/27 02:33:46;;;;;;;;;;;;;;;28.89;20.81;101664.28;5080913;28;847;-34
2021/03/27 02:36:12;;;;;;;;;;;;;;;29.66;19.61;101663.88;5081839;28;919;-43
2021/03/27 02:38:44;;;;;;;;;;;;;;;29.34;20.07;101664.66;5100399;28;806;-34
2021/03/27 02:41:27;;;;;;;;;;;;;;;28.87;20.63;101668.16;5100329;28;756;-44
2021/03/27 02:44:00;;;;;;;;;;;;;;;29.19;20.29;101661.00;5099822;28;1909;-35
2021/03/27 02:46:34;;;;;;;;;;;;;;;29.67;19.67;101669.13;5082228;28;792;-34
2021/03/27 02:49:03;;;;;;;;;;;;;;;29.40;20.06;101671.25;5099991;28;732;-34
2021/03/27 02:51:28;;;;;;;;;;;;;;;29.18;20.02;101671.00;5100104;28;926;-37
2021/03/27 02:54:13;;;;;;;;;;;;;;;28.35;21.51;101674.66;5100150;28;790;-36
2021/03/27 02:57:02;;;;;;;;;;;;;;;28.48;21.45;101679.56;5088792;28;1356;-42
2021/03/27 02:59:46;;;;;;;;;;;;;;;29.00;20.48;101675.78;5091421;28;1329;-39
2021/03/27 03:02:16;;;;;;;;;;;;;;;28.83;20.80;101686.63;5099989;28;774;-41
2021/03/27 03:04:50;;;;;;;;;;;;;;;29.57;20.32;101684.72;5081693;28;1901;-40
2021/03/27 03:07:26;;;;;;;;;;;;;;;29.53;19.86;101686.94;5093253;28;995;-34
2021/03/27 03:10:15;;;;;;;;;;;;;;;29.15;20.29;101675.91;5120052;28;907;-42
2021/03/27 03:12:57;;;;;;;;;;;;;;;29.09;20.63;101685.59;5111398;28;1045;-34
2021/03/27 03:15:22;;;;;;;;;;;;;;;29.74;19.90;101692.78;5101934;28;783;-48
2021/03/27 03:18:14;;;;;;;;;;;;;;;29.97;19.46;101687.41;5119726;28;875;-36
2021/03/27 03:20:49;;;;;;;;;;;;;;;29.52;19.74;101687.97;5095634;28;1364;-49
2021/03/27 03:23:33;;;;;;;;;;;;;;;29.15;20.35;101684.88;5081758;28;926;-43
2021/03/27 03:26:00;;;;;;;;;;;;;;;28.54;21.15;101693.44;5099436;28;744;-34
2021/03/27 03:28:30;;;;;;;;;;;;;;;29.29;20.56;101694.16;5081378;28;841;-35
2021/03/27 03:31:14;;;;;;;;;;;;;;;29.46;20.15;101688.69;5080988;28;1445;-44
2021/03/27 03:34:08;;;;;;;;;;;;;;;29.03;20.81;101689.81;5099302;28;756;-35
2021/03/27 03:36:40;;;;;;;;;;;;;;;29.63;19.95;101694.88;5094708;28;1190;-36
2021/03/27 03:39:25;;;;;;;;;;;;;;;29.39;20.13;101685.81;5101563;28;752;-35
2021/03/27 03:41:50;;;;;;;;;;;;;;;28.67;21.43;101695.63;5108438;28;1261;-44
2021/03/27 03:44:34;;;;;;;;;;;;;;;29.02;20.93;101692.72;5118221;28;1901;-43
2021/03/27 03:47:08;;;;;;;;;;;;;;;29.57;20.27;101699.13;5119339;28;767;-34
2021/03/27 03:49:52;;;;;;;;;;;;;;;29.72;19.81;101705.69;5119171;28;815;-47
2021/03/27 03:52:17;;;;;;;;;;;;;;;29.40;19.94;101701.06;5117909;28;1036;-35
2021/03/27 03:55:04;;;;;;;;;;;;;;;28.85;20.96;101706.25;5119292;28;826;-39
2021/03/27 03:57:29;;;;;;;;;;;;;;;28.44;21.63;101704.44;5100743;28;777;-47
2021/03/27 04:00:00;;;;;;;;;;;;;;;29.01;21.01;101715.41;5119092;28;771;-35
2021/03/27 04:02:27;;;;;;;;;;;;;;;29.19;20.62;101717.91;5119240;28;816;-35
2021/03/27 04:04:56;;;;;;;;;;;;;;;28.82;21.40;101717.44;5118731;28;1966;-45
2021/03/27 04:07:24;;;;;;;;;;;;;;;29.63;20.55;101727.41;5099613;28;934;-35
2021/03/27 04:09:51;;;;;;;;;;;;;;;29.63;20.17;101723.88;5100891;28;819;-47
2021/03/27 04:12:22;;;;;;;;;;;;;;;28.89;19.82;101731.13;5100648;28;800;-34
2021/03/27 04:14:55;;;;;;;;;;;;;;;28.87;20.80;101731.31;5118406;28;832;-46
2021/03/27 04:17:24;;;;;;;;;;;;;;;28.60;17.69;101730.63;5100713;28;930;-33
2021/03/27 04:19:53;;;;;;;;;;;;;;;27.33;17.20;101732.28;5118797;28;768;-32
2021/03/27 04:22:25;;;;;;;;;;;;;;;25.65;20.03;101729.91;5099405;28;1518;-33
2021/03/27 04:24:50;;;;;;;;;;;;;;;25.97;19.44;101735.84;5118598;28;1901;-42
2021/03/27 04:27:36;;;;;;;;;;;;;;;25.60;19.61;101742.09;5118223;28;803;-33
2021/03/27 04:30:20;;;;;;;;;;;;;;;25.54;20.01;101744.38;5100581;28;851;-34
2021/03/27 04:32:55;;;;;;;;;;;;;;;26.31;18.27;101746.97;5100433;28;1245;-33
2021/03/27 04:35:20;;;;;;;;;;;;;;;26.02;18.17;101754.25;5118350;28;768;-35
2021/03/27 04:37:55;;;;;;;;;;;;;;;26.32;18.48;101756.75;5101683;28;894;-34
2021/03/27 04:40:22;;;;;;;;;;;;;;;26.52;18.41;101758.34;5079657;28;840;-35
2021/03/27 04:42:48;;;;;;;;;;;;;;;26.46;19.18;101758.94;5079619;28;1144;-34
2021/03/27 04:45:23;;;;;;;;;;;;;;;24.51;16.37;101755.69;5097867;28;1903;-34
2021/03/27 04:48:07;;;;;;;;;;;;;;;23.78;17.27;101754.97;5079581;28;1031;-36
2021/03/27 04:50:56;;;;;;;;;;;;;;;23.17;17.69;101752.09;5097488;28;834;-49
2021/03/27 04:53:25;;;;;;;;;;;;;;;22.95;18.27;101751.25;5086289;28;997;-43
2021/03/27 04:55:53;;;;;;;;;;;;;;;25.69;19.21;101760.09;5099404;28;799;-33
2021/03/27 04:58:24;;;;;;;;;;;;;;;26.41;18.81;101761.25;5117762;28;875;-35
2021/03/27 05:01:02;;;;;;;;;;;;;;;26.96;19.03;101766.63;5118211;28;803;-38
2021/03/27 05:03:32;;;;;;;;;;;;;;;27.06;19.11;101767.38;5118109;28;1914;-45
2021/03/27 05:05:59;;;;;;;;;;;;;;;27.24;18.97;101769.22;5098817;28;946;-37
2021/03/27 05:08:43;;;;;;;;;;;;;;;27.34;19.05;101772.63;5117727;28;771;-35
2021/03/27 05:11:26;;;;;;;;;;;;;;;26.20;20.22;101775.84;5118394;28;747;-36
2021/03/27 05:13:53;;;;;;;;;;;;;;;25.91;20.78;101775.03;5117895;28;823;-34
2021/03/27 05:16:22;;;;;;;;;;;;;;;27.29;19.36;101788.50;5099340;28;1114;-50
2021/03/27 05:19:02;;;;;;;;;;;;;;;28.03;18.62;101784.47;5117500;28;819;-30
2021/03/27 05:21:48;;;;;;;;;;;;;;;27.81;18.96;101788.63;5116457;28;950;-35
2021/03/27 05:24:22;;;;;;;;;;;;;;;27.28;19.46;101788.66;5116825;28;2004;-33
2021/03/27 05:26:47;;;;;;;;;;;;;;;27.26;19.73;101795.03;5117248;28;863;-33
2021/03/27 05:29:22;;;;;;;;;;;;;;;27.94;18.43;101798.97;5117308;28;798;-32
2021/03/27 05:31:54;;;;;;;;;;;;;;;28.05;18.80;101797.81;5117569;28;760;-32
2021/03/27 05:34:31;;;;;;;;;;;;;;;27.67;19.16;101806.25;5117450;28;767;-34
2021/03/27 05:37:04;;;;;;;;;;;;;;;28.55;18.48;101801.53;5088643;28;926;-32
2021/03/27 05:39:31;;;;;;;;;;;;;;;28.79;17.97;101808.00;5085331;28;804;-32
2021/03/27 05:42:15;;;;;;;;;;;;;;;28.62;18.59;101804.41;5098653;28;1102;-50
2021/03/27 05:44:59;;;;;;;;;;;;;;;28.08;18.98;101811.88;5117041;28;1914;-33
2021/03/27 05:47:42;;;;;;;;;;;;;;;28.72;18.41;101810.53;5117499;28;791;-38
2021/03/27 05:50:28;;;;;;;;;;;;;;;28.94;18.30;101815.44;5116546;28;851;-32
2021/03/27 05:52:59;;;;;;;;;;;;;;;29.21;18.21;101818.84;5115762;28;985;-36
2021/03/27 05:55:30;;;;;;;;;;;;;;;29.50;18.15;101816.56;5117174;28;862;-32
2021/03/27 05:58:07;;;;;;;;;;;;;;;29.14;18.29;101817.81;5116509;28;771;-33
2021/03/27 06:00:41;;;;;;;;;;;;;;;28.25;19.37;101817.34;5099199;28;775;-39
2021/03/27 06:03:22;;;;;;;;;;;;;;;27.75;19.90;101818.00;5117069;28;779;-33
2021/03/27 06:05:57;;;;;;;;;;;;;;;27.74;20.18;101819.00;5097890;28;1906;-34
2021/03/27 06:08:33;;;;;;;;;;;;;;;28.14;19.89;101820.34;5096222;28;784;-33
2021/03/27 06:11:05;;;;;;;;;;;;;;;28.98;18.75;101824.94;5095802;28;828;-33
2021/03/27 06:13:32;;;;;;;;;;;;;;;29.03;18.61;101821.72;5096558;28;779;-53
2021/03/27 06:16:10;;;;;;;;;;;;;;;28.88;19.01;101826.94;5078545;28;827;-34
2021/03/27 06:18:53;;;;;;;;;;;;;;;29.38;18.65;101818.81;5095875;28;784;-32
2021/03/27 06:21:21;;;;;;;;;;;;;;;29.56;18.57;101818.59;5096742;28;942;-32
2021/03/27 06:23:47;;;;;;;;;;;;;;;29.48;18.57;101829.47;5096633;28;1910;-32
2021/03/27 06:26:12;;;;;;;;;;;;;;;29.25;18.69;101825.59;5095883;28;855;-32
2021/03/27 06:28:55;;;;;;;;;;;;;;;28.60;19.41;101830.81;5096406;28;816;-35
2021/03/27 06:31:41;;;;;;;;;;;;;;;28.31;19.89;101829.38;5096209;28;849;-35
2021/03/27 06:34:25;;;;;;;;;;;;;;;29.00;19.19;101832.88;5077908;28;831;-36
2021/03/27 06:37:05;;;;;;;;;;;;;;;29.04;18.87;101831.53;5096216;28;903;-34
2021/03/27 06:39:37;;;;;;;;;;;;;;;29.01;19.14;101829.19;5095877;28;948;-35
2021/03/27 06:42:12;;;;;;;;;;;;;;;29.31;18.99;101832.19;5074404;28;1084;-36
2021/03/27 06:44:40;;;;;;;;;;;;;;;29.17;18.93;101826.44;5075934;28;1914;-34
2021/03/27 06:47:24;;;;;;;;;;;;;;;28.71;19.67;101827.75;5075854;28;842;-34
2021/03/27 06:50:02;;;;;;;;;;;;;;;28.95;19.32;101830.66;5075690;28;767;-34
2021/03/27 06:52:31;;;;;;;;;;;;;;;28.78;19.55;101832.53;5075149;28;958;-34
2021/03/27 06:55:02;;;;;;;;;;;;;;;28.65;19.40;101830.28;5075861;28;783;-34
2021/03/27 06:57:46;;;;;;;;;;;;;;;28.58;19.54;101836.38;5075906;28;815;-34
2021/03/27 07:00:23;;;;;;;;;;;;;;;28.52;19.57;101838.91;5075625;28;871;-34
2021/03/27 07:03:07;;;;;;;;;;;;;;;27.79;21.05;101836.59;5075561;28;840;-34
2021/03/27 07:05:51;;;;;;;;;;;;;;;28.24;20.36;101834.59;5074257;28;1903;-34
2021/03/27 07:08:25;;;;;;;;;;;;;;;28.86;19.49;101843.38;5095047;28;1035;-34
2021/03/27 07:10:50;;;;;;;;;;;;;;;29.11;18.86;101843.41;5095981;28;823;-34
2021/03/27 07:13:34;;;;;;;;;;;;;;;28.73;19.38;101843.84;5095775;28;770;-34
2021/03/27 07:16:31;;;;;;;;;;;;;;;28.92;19.10;101842.69;5095995;28;811;-34
2021/03/27 07:19:11;;;;;;;;;;;;;;;28.83;19.49;101847.25;5050638;28;1007;-34
2021/03/27 07:21:40;;;;;;;;;;;;;;;28.78;19.17;101851.50;5097199;28;1231;-35
2021/03/27 07:24:05;;;;;;;;;;;;;;;28.77;19.04;101844.34;5098195;28;1970;-35
2021/03/27 07:26:42;;;;;;;;;;;;;;;28.69;19.29;101850.63;5099288;28;771;-36
2021/03/27 07:29:32;;;;;;;;;;;;;;;28.76;19.17;101850.81;5098190;28;779;-34
2021/03/27 07:32:16;;;;;;;;;;;;;;;28.73;19.29;101850.13;5099116;28;868;-34
2021/03/27 07:35:00;;;;;;;;;;;;;;;28.78;19.46;101854.19;5099141;28;890;-42
2021/03/27 07:37:45;;;;;;;;;;;;;;;28.75;19.18;101851.78;5098188;28;941;-34
2021/03/27 07:40:32;;;;;;;;;;;;;;;28.74;19.10;101861.81;5056940;28;1143;-34
2021/03/27 07:43:16;;;;;;;;;;;;;;;28.74;19.31;101856.38;5097488;28;1185;-34
2021/03/27 07:45:53;;;;;;;;;;;;;;;28.76;19.28;101856.22;5097867;28;1905;-34
2021/03/27 07:48:31;;;;;;;;;;;;;;;28.75;19.45;101860.78;5098435;28;843;-40
2021/03/27 07:50:58;;;;;;;;;;;;;;;28.75;19.30;101862.63;5098234;28;960;-34
2021/03/27 07:53:36;;;;;;;;;;;;;;;28.84;19.29;101858.94;5099263;28;803;-35
2021/03/27 07:56:13;;;;;;;;;;;;;;;28.81;19.17;101861.97;5098307;28;819;-43
2021/03/27 07:58:56;;;;;;;;;;;;;;;28.78;19.11;101860.44;5098922;28;780;-34
2021/03/27 08:01:33;;;;;;;;;;;;;;;28.14;20.12;101860.94;5096897;28;891;-34
2021/03/27 08:04:17;;;;;;;;;;;;;;;28.13;19.45;101861.94;5098553;28;2023;-36
2021/03/27 08:06:49;;;;;;;;;;;;;;;28.46;19.16;101868.31;5097557;28;953;-35
2021/03/27 08:09:21;;;;;;;;;;;;;;;28.73;18.54;101860.09;5096591;28;1006;-35
2021/03/27 08:12:05;;;;;;;;;;;;;;;28.76;18.59;101857.03;5098665;28;768;-41
2021/03/27 08:14:30;;;;;;;;;;;;;;;28.79;18.54;101859.44;5098489;28;863;-36
2021/03/27 08:17:04;;;;;;;;;;;;;;;28.51;19.22;101857.00;5098302;28;767;-36
2021/03/27 08:19:48;;;;;;;;;;;;;;;28.92;18.47;101858.09;5098498;28;775;-35
2021/03/27 08:22:19;;;;;;;;;;;;;;;29.04;18.21;101864.03;5097041;28;937;-37
2021/03/27 08:25:03;;;;;;;;;;;;;;;29.07;18.27;101856.44;5096798;28;1910;-37
2021/03/27 08:27:31;;;;;;;;;;;;;;;29.02;18.04;101856.09;5098187;28;756;-37
2021/03/27 08:30:03;;;;;;;;;;;;;;;28.96;17.94;101859.44;5097671;28;811;-36
2021/03/27 08:32:28;;;;;;;;;;;;;;;28.98;17.87;101862.03;5098125;28;755;-37
2021/03/27 08:34:53;;;;;;;;;;;;;;;29.01;17.75;101856.25;5098284;28;819;-37
2021/03/27 08:37:18;;;;;;;;;;;;;;;29.10;17.58;101857.94;5096814;28;901;-35
2021/03/27 08:40:02;;;;;;;;;;;;;;;29.00;18.07;101855.41;5097750;28;846;-36
2021/03/27 08:42:57;;;;;;;;;;;;;;;29.02;17.86;101847.97;5096765;28;1098;-36
2021/03/27 08:45:22;;;;;;;;;;;;;;;29.04;17.52;101856.78;5025297;28;1906;-33
2021/03/27 08:47:48;;;;;;;;;;;;;;;29.06;17.46;101848.47;5097457;28;755;-42
2021/03/27 08:50:13;;;;;;;;;;;;;;;29.03;17.68;101851.53;5097566;28;856;-36
2021/03/27 08:52:44;;;;;;;;;;;;;;;29.05;17.62;101844.91;5096894;28;1013;-36
2021/03/27 08:55:15;;;;;;;;;;;;;;;29.03;17.57;101849.66;5097497;28;767;-32
2021/03/27 08:57:43;;;;;;;;;;;;;;;29.02;17.47;101847.97;5097444;28;756;-36
2021/03/27 09:00:24;;;;;;;;;;;;;;;29.11;17.44;101847.97;5097575;28;805;-36
2021/03/27 09:02:52;;;;;;;;;;;;;;;29.10;17.01;101844.41;5096878;28;826;-36
2021/03/27 09:05:18;;;;;;;;;;;;;;;29.11;17.30;101843.41;5097376;28;1929;-36
2021/03/27 09:08:06;;;;;;;;;;;;;;;29.22;17.24;101847.63;5096256;28;969;-41
2021/03/27 09:10:32;;;;;;;;;;;;;;;29.13;17.18;101848.66;5059184;28;1148;-40
2021/03/27 09:13:06;;;;;;;;;;;;;;;29.21;16.86;101841.34;5097438;28;783;-35
2021/03/27 09:15:50;;;;;;;;;;;;;;;29.16;17.19;101838.28;5097251;28;779;-42
2021/03/27 09:18:26;;;;;;;;;;;;;;;29.23;16.81;101834.91;5096662;28;844;-35
2021/03/27 09:21:10;;;;;;;;;;;;;;;29.29;16.92;101831.50;5095776;28;993;-34
2021/03/27 09:23:39;;;;;;;;;;;;;;;29.31;17.02;101837.63;5076366;28;1905;-36
2021/03/27 09:26:23;;;;;;;;;;;;;;;29.38;16.89;101826.94;5075508;28;756;-35
2021/03/27 09:29:01;;;;;;;;;;;;;;;29.43;16.88;101828.09;5076891;28;780;-37
2021/03/27 09:31:38;;;;;;;;;;;;;;;29.50;16.87;101827.41;5076283;28;863;-36
2021/03/27 09:34:18;;;;;;;;;;;;;;;29.41;16.87;101832.00;5076733;28;800;-36
2021/03/27 09:36:46;;;;;;;;;;;;;;;29.46;16.64;101824.22;5084586;28;930;-36
2021/03/27 09:39:22;;;;;;;;;;;;;;;29.47;16.70;101815.03;5096570;28;799;-36
2021/03/27 09:42:06;;;;;;;;;;;;;;;29.48;16.57;101819.44;5098343;28;1177;-35
2021/03/27 09:44:36;;;;;;;;;;;;;;;29.50;16.66;101813.84;5117281;28;1917;-40
2021/03/27 09:47:15;;;;;;;;;;;;;;;29.51;16.58;101810.13;5098590;28;828;-39
2021/03/27 09:49:46;;;;;;;;;;;;;;;29.61;16.34;101808.09;5099115;28;852;-34
2021/03/27 09:52:26;;;;;;;;;;;;;;;29.67;16.38;101809.25;5115905;28;953;-36
2021/03/27 09:55:12;;;;;;;;;;;;;;;29.68;16.44;101810.94;5116768;28;819;-38
2021/03/27 09:57:50;;;;;;;;;;;;;;;29.76;16.47;101807.38;5085102;28;1134;-35
2021/03/27 10:00:39;;;;;;;;;;;;;;;29.64;16.33;101796.91;5098388;28;792;-35
2021/03/27 10:03:24;;;;;;;;;;;;;;;29.04;16.38;101797.19;5116245;28;1845;-36
2021/03/27 10:05:53;;;;;;;;;;;;;;;29.21;16.91;101800.69;5084472;28;1906;-35
2021/03/27 10:08:38;;;;;;;;;;;;;;;29.52;16.53;101790.13;5098075;28;946;-43
2021/03/27 10:11:04;;;;;;;;;;;;;;;29.57;16.12;101791.31;5089285;28;1141;-35
2021/03/27 10:13:35;;;;;;;;;;;;;;;29.69;16.34;101788.25;5087796;28;1235;-36
2021/03/27 10:16:01;;;;;;;;;;;;;;;29.76;16.42;101781.06;5106078;28;1181;-41
2021/03/27 10:18:29;;;;;;;;;;;;;;;29.92;16.13;101796.44;5086401;28;1170;-34
2021/03/27 10:20:56;;;;;;;;;;;;;;;29.76;16.15;101786.50;5105591;28;1169;-43
2021/03/27 10:23:30;;;;;;;;;;;;;;;30.05;16.00;101786.88;5086306;28;1188;-40
2021/03/27 10:25:59;;;;;;;;;;;;;;;29.99;16.34;101785.72;5104828;28;1967;-35
2021/03/27 10:28:26;;;;;;;;;;;;;;;30.08;16.05;101788.41;5106372;28;1212;-36
2021/03/27 10:30:57;;;;;;;;;;;;;;;30.08;16.10;101783.81;5086700;28;1161;-35
2021/03/27 10:33:34;;;;;;;;;;;;;;;30.07;16.25;101787.56;5086268;28;1173;-38
2021/03/27 10:36:04;;;;;;;;;;;;;;;30.13;16.08;101791.44;5104492;28;1216;-34
2021/03/27 10:38:35;;;;;;;;;;;;;;;30.20;16.01;101792.41;5087559;28;1162;-42
2021/03/27 10:41:13;;;;;;;;;;;;;;;30.24;16.06;101799.19;5103034;28;1169;-41
2021/03/27 10:43:47;;;;;;;;;;;;;;;30.25;16.17;101791.88;5086215;28;1985;-34
2021/03/27 10:46:29;;;;;;;;;;;;;;;30.29;16.27;101787.78;5104463;28;1196;-41
2021/03/27 10:49:03;;;;;;;;;;;;;;;30.29;16.28;101783.22;5088178;28;1142;-47
2021/03/27 10:51:47;;;;;;;;;;;;;;;30.37;16.09;101778.75;5088530;28;1146;-56
2021/03/27 10:54:30;;;;;;;;;;;;;;;30.48;16.48;101775.59;5104632;28;1145;-36
2021/03/27 10:56:56;;;;;;;;;;;;;;;29.92;16.74;101779.31;5108050;28;1265;-35
2021/03/27 10:59:34;;;;;;;;;;;;;;;30.19;16.62;101777.13;5120071;28;797;-40
2021/03/27 11:02:09;;;;;;;;;;;;;;;30.22;16.75;101778.66;5111000;28;1161;-37
2021/03/27 11:04:41;;;;;;;;;;;;;;;30.32;16.50;101768.44;5101988;28;1972;-39
2021/03/27 11:07:06;;;;;;;;;;;;;;;30.36;16.59;101768.91;5081499;28;935;-34
2021/03/27 11:09:44;;;;;;;;;;;;;;;30.34;16.59;101774.53;5099639;28;882;-40
2021/03/27 11:12:15;;;;;;;;;;;;;;;30.36;16.59;101771.63;5102677;28;1166;-40
2021/03/27 11:14:43;;;;;;;;;;;;;;;29.81;17.10;101769.72;5099555;28;775;-33
2021/03/27 11:17:23;;;;;;;;;;;;;;;29.39;17.64;101761.72;5116992;28;1213;-33
2021/03/27 11:19:54;;;;;;;;;;;;;;;29.19;17.99;101759.41;5120008;28;747;-43
2021/03/27 11:22:23;;;;;;;;;;;;;;;29.01;18.02;101761.47;5111446;28;1055;-37
2021/03/27 11:25:00;;;;;;;;;;;;;;;28.98;17.93;101762.63;5107718;28;1956;-33
2021/03/27 11:27:35;;;;;;;;;;;;;;;28.86;18.57;101756.72;5112062;28;1232;-37
2021/03/27 11:30:12;;;;;;;;;;;;;;;28.64;18.60;101750.97;5116446;28;1268;-36
2021/03/27 11:32:44;;;;;;;;;;;;;;;28.56;18.75;101748.25;5116599;28;1184;-40
2021/03/27 11:35:15;;;;;;;;;;;;;;;29.27;18.28;101752.25;5119576;28;795;-38
2021/03/27 11:37:40;;;;;;;;;;;;;;;29.71;17.49;101750.97;5099738;28;978;-33
2021/03/27 11:40:21;;;;;;;;;;;;;;;29.22;18.00;101755.47;5119519;28;808;-45
2021/03/27 11:42:56;;;;;;;;;;;;;;;28.67;18.74;101745.19;5116120;28;1217;-42
2021/03/27 11:45:27;;;;;;;;;;;;;;;29.38;18.55;101746.44;5080991;28;1930;-37
2021/03/27 11:47:56;;;;;;;;;;;;;;;29.76;17.80;101745.00;5098936;28;839;-43
2021/03/27 11:50:30;;;;;;;;;;;;;;;29.97;17.99;101748.94;5098471;28;788;-39
2021/03/27 11:53:14;;;;;;;;;;;;;;;30.13;17.82;101745.31;5099406;28;939;-40
2021/03/27 11:55:58;;;;;;;;;;;;;;;30.27;17.74;101746.41;5098731;28;815;-39
2021/03/27 11:58:32;;;;;;;;;;;;;;;30.35;17.69;101750.91;5098206;28;947;-37
2021/03/27 12:01:02;;;;;;;;;;;;;;;29.94;17.69;101750.16;5098964;28;772;-36
2021/03/27 12:03:33;;;;;;;;;;;;;;;29.43;18.12;101737.78;5081350;28;764;-36
2021/03/27 12:06:10;;;;;;;;;;;;;;;29.63;18.44;101735.53;5097931;28;1898;-42
2021/03/27 12:08:41;;;;;;;;;;;;;;;30.08;17.59;101737.69;5098930;28;772;-37
2021/03/27 12:11:26;;;;;;;;;;;;;;;30.17;17.55;101736.63;5080006;28;832;-37
2021/03/27 12:14:00;;;;;;;;;;;;;;;30.20;17.85;101730.00;5079920;28;849;-36
2021/03/27 12:16:25;;;;;;;;;;;;;;;30.25;17.85;101740.31;5080637;28;807;-38
2021/03/27 12:18:59;;;;;;;;;;;;;;;30.31;17.73;101739.59;5098455;28;779;-35
2021/03/27 12:21:50;;;;;;;;;;;;;;;30.33;17.74;101731.28;5098407;28;989;-32
2021/03/27 12:24:27;;;;;;;;;;;;;;;30.37;17.90;101733.44;5079655;28;1953;-36
2021/03/27 12:26:55;;;;;;;;;;;;;;;30.37;17.89;101729.88;5098292;28;835;-36
2021/03/27 12:29:47;;;;;;;;;;;;;;;30.41;17.89;101720.34;5098272;28;834;-40
2021/03/27 12:32:31;;;;;;;;;;;;;;;30.47;17.83;101729.63;5094537;28;1087;-35
2021/03/27 12:35:14;;;;;;;;;;;;;;;30.57;17.68;101732.09;5098162;28;752;-37
2021/03/27 12:37:41;;;;;;;;;;;;;;;30.51;17.92;101731.78;5097925;28;950;-37
2021/03/27 12:40:25;;;;;;;;;;;;;;;30.67;17.68;101727.25;5079937;28;755;-36
2021/03/27 12:42:57;;;;;;;;;;;;;;;30.66;17.80;101723.69;5097528;28;1287;-38
2021/03/27 12:45:25;;;;;;;;;;;;;;;30.67;17.77;101724.53;5079714;28;1976;-44
2021/03/27 12:48:09;;;;;;;;;;;;;;;30.63;18.08;101732.19;5098079;28;795;-37
2021/03/27 12:50:53;;;;;;;;;;;;;;;30.68;18.04;101729.78;5097547;28;787;-37
2021/03/27 12:53:30;;;;;;;;;;;;;;;30.67;17.85;101730.81;5117653;28;966;-42
2021/03/27 12:56:07;;;;;;;;;;;;;;;30.75;17.60;101721.75;5118066;28;811;-37
2021/03/27 12:58:33;;;;;;;;;;;;;;;30.89;17.50;101724.72;5117887;28;747;-39
2021/03/27 13:01:07;;;;;;;;;;;;;;;30.94;17.68;101718.72;5118052;28;830;-35
2021/03/27 13:03:35;;;;;;;;;;;;;;;30.90;17.54;101726.38;5099915;28;783;-39
2021/03/27 13:06:00;;;;;;;;;;;;;;;30.98;17.60;101733.63;5089201;28;1910;-33
2021/03/27 13:08:34;;;;;;;;;;;;;;;30.95;17.39;101728.56;5117823;28;756;-37
2021/03/27 13:11:20;;;;;;;;;;;;;;;30.99;17.44;101733.44;5117797;28;771;-33
2021/03/27 13:14:04;;;;;;;;;;;;;;;31.00;17.49;101721.53;5085528;28;986;-33
2021/03/27 13:16:47;;;;;;;;;;;;;;;31.01;17.49;101727.81;5117656;28;751;-34
2021/03/27 13:19:31;;;;;;;;;;;;;;;30.81;17.53;101719.34;5117454;28;850;-34
2021/03/27 13:21:59;;;;;;;;;;;;;;;30.76;17.86;101722.59;5116214;28;1001;-34
2021/03/27 13:24:35;;;;;;;;;;;;;;;30.72;17.84;101713.13;5117336;28;1901;-34
2021/03/27 13:27:08;;;;;;;;;;;;;;;30.73;17.72;101717.53;5117138;28;688;-33
2021/03/27 13:29:38;;;;;;;;;;;;;;;30.72;17.71;101718.56;5099183;28;839;-35
2021/03/27 13:32:16;;;;;;;;;;;;;;;30.82;17.58;101711.03;5099198;28;796;-33